sensor_id;sensor_type;location;lat;lon;timestamp;temperature;humidity
26278;DHT22;14000;52.056;8.510;2023-11-19T00:00:25;8.90;99.90
26278;DHT22;14000;52.056;8.510;2023-11-19T00:02:51;8.90;99.90
26278;DHT22;14000;52.056;8.510;2023-11-19T00:05:17;8.90;99.90
26278;DHT22;14000;52.056;8.510;2023-11-19T00:07:42;8.90;99.90
26278;DHT22;14000;52.056;8.510;2023-11-19T00:10:12;8.90;99.90
26278;DHT22;14000;52.056;8.510;2023-11-19T00:12:43;9.00;99.90
26278;DHT22;14000;52.056;8.510;2023-11-19T00:15:09;9.00;99.90
26278;DHT22;14000;52.056;8.510;2023-11-19T00:17:37;9.00;99.90
26278;DHT22;14000;52.056;8.510;2023-11-19T00:20:06;9.10;99.90
26278;DHT22;14000;52.056;8.510;2023-11-19T00:22:32;9.10;99.90
26278;DHT22;14000;52.056;8.510;2023-11-19T00:24:58;9.20;99.90
26278;DHT22;14000;52.056;8.510;2023-11-19T00:27:25;9.20;99.90
26278;DHT22;14000;52.056;8.510;2023-11-19T00:29:50;9.20;99.90
26278;DHT22;14000;52.056;8.510;2023-11-19T00:32:16;9.20;99.90
26278;DHT22;14000;52.056;8.510;2023-11-19T00:34:46;9.30;99.90
26278;DHT22;14000;52.056;8.510;2023-11-19T00:37:13;9.30;99.90
26278;DHT22;14000;52.056;8.510;2023-11-19T00:39:39;9.40;99.90
26278;DHT22;14000;52.056;8.510;2023-11-19T00:42:05;9.40;99.90
26278;DHT22;14000;52.056;8.510;2023-11-19T00:44:31;9.40;99.90
26278;DHT22;14000;52.056;8.510;2023-11-19T00:46:56;9.40;99.90
26278;DHT22;14000;52.056;8.510;2023-11-19T00:49:22;9.40;99.90
26278;DHT22;14000;52.056;8.510;2023-11-19T00:51:47;9.50;99.90
26278;DHT22;14000;52.056;8.510;2023-11-19T00:54:13;9.50;99.90
26278;DHT22;14000;52.056;8.510;2023-11-19T00:56:38;9.70;99.90
26278;DHT22;14000;52.056;8.510;2023-11-19T00:59:05;9.60;99.90
26278;DHT22;14000;52.056;8.510;2023-11-19T01:01:30;9.70;99.90
26278;DHT22;14000;52.056;8.510;2023-11-19T01:03:56;9.80;99.90
26278;DHT22;14000;52.056;8.510;2023-11-19T01:06:28;9.80;99.90
26278;DHT22;14000;52.056;8.510;2023-11-19T01:08:54;9.80;99.90
26278;DHT22;14000;52.056;8.510;2023-11-19T01:11:21;9.80;99.90
26278;DHT22;14000;52.056;8.510;2023-11-19T01:13:47;9.90;99.90
26278;DHT22;14000;52.056;8.510;2023-11-19T01:16:13;9.90;99.90
26278;DHT22;14000;52.056;8.510;2023-11-19T01:18:39;9.90;99.90
26278;DHT22;14000;52.056;8.510;2023-11-19T01:21:05;10.00;99.90
26278;DHT22;14000;52.056;8.510;2023-11-19T01:23:30;9.90;99.90
26278;DHT22;14000;52.056;8.510;2023-11-19T01:25:56;9.90;99.90
26278;DHT22;14000;52.056;8.510;2023-11-19T01:28:21;10.00;99.90
26278;DHT22;14000;52.056;8.510;2023-11-19T01:30:50;10.00;99.90
26278;DHT22;14000;52.056;8.510;2023-11-19T01:33:16;10.00;99.90
26278;DHT22;14000;52.056;8.510;2023-11-19T01:35:42;10.10;99.90
26278;DHT22;14000;52.056;8.510;2023-11-19T01:38:07;10.10;99.90
26278;DHT22;14000;52.056;8.510;2023-11-19T01:40:36;10.10;99.90
26278;DHT22;14000;52.056;8.510;2023-11-19T01:43:02;10.20;99.90
26278;DHT22;14000;52.056;8.510;2023-11-19T01:45:29;10.20;99.90
26278;DHT22;14000;52.056;8.510;2023-11-19T01:48:00;10.20;99.90
26278;DHT22;14000;52.056;8.510;2023-11-19T01:50:27;10.30;99.90
26278;DHT22;14000;52.056;8.510;2023-11-19T01:52:54;10.30;99.90
26278;DHT22;14000;52.056;8.510;2023-11-19T01:55:21;10.40;99.90
26278;DHT22;14000;52.056;8.510;2023-11-19T01:57:48;10.40;99.90
26278;DHT22;14000;52.056;8.510;2023-11-19T02:00:15;10.40;99.90
26278;DHT22;14000;52.056;8.510;2023-11-19T02:02:42;10.40;99.90
26278;DHT22;14000;52.056;8.510;2023-11-19T02:05:09;10.40;99.90
26278;DHT22;14000;52.056;8.510;2023-11-19T02:07:35;10.40;99.90
26278;DHT22;14000;52.056;8.510;2023-11-19T02:10:01;10.50;99.90
26278;DHT22;14000;52.056;8.510;2023-11-19T02:12:28;10.50;99.90
26278;DHT22;14000;52.056;8.510;2023-11-19T02:14:54;10.50;99.90
26278;DHT22;14000;52.056;8.510;2023-11-19T02:17:27;10.50;99.90
26278;DHT22;14000;52.056;8.510;2023-11-19T02:19:53;10.50;99.90
26278;DHT22;14000;52.056;8.510;2023-11-19T02:22:19;10.50;99.90
26278;DHT22;14000;52.056;8.510;2023-11-19T02:24:46;10.60;99.90
26278;DHT22;14000;52.056;8.510;2023-11-19T02:27:31;10.60;99.90
26278;DHT22;14000;52.056;8.510;2023-11-19T02:29:59;10.60;99.90
26278;DHT22;14000;52.056;8.510;2023-11-19T02:32:31;10.60;99.90
26278;DHT22;14000;52.056;8.510;2023-11-19T02:34:56;10.70;99.90
26278;DHT22;14000;52.056;8.510;2023-11-19T02:37:22;10.70;99.90
26278;DHT22;14000;52.056;8.510;2023-11-19T02:39:48;10.70;99.90
26278;DHT22;14000;52.056;8.510;2023-11-19T02:42:14;10.80;99.90
26278;DHT22;14000;52.056;8.510;2023-11-19T02:44:44;10.90;99.90
26278;DHT22;14000;52.056;8.510;2023-11-19T02:47:10;10.90;99.90
26278;DHT22;14000;52.056;8.510;2023-11-19T02:49:36;10.90;99.90
26278;DHT22;14000;52.056;8.510;2023-11-19T02:52:03;11.00;99.90
26278;DHT22;14000;52.056;8.510;2023-11-19T02:54:30;11.00;99.90
26278;DHT22;14000;52.056;8.510;2023-11-19T02:57:00;10.90;99.90
26278;DHT22;14000;52.056;8.510;2023-11-19T02:59:27;11.00;99.90
26278;DHT22;14000;52.056;8.510;2023-11-19T03:01:53;11.00;99.90
26278;DHT22;14000;52.056;8.510;2023-11-19T03:04:20;11.00;99.90
26278;DHT22;14000;52.056;8.510;2023-11-19T03:06:46;11.00;99.90
26278;DHT22;14000;52.056;8.510;2023-11-19T03:09:12;11.10;99.90
26278;DHT22;14000;52.056;8.510;2023-11-19T03:11:37;11.20;99.90
26278;DHT22;14000;52.056;8.510;2023-11-19T03:14:03;11.10;99.90
26278;DHT22;14000;52.056;8.510;2023-11-19T03:16:29;11.10;99.90
26278;DHT22;14000;52.056;8.510;2023-11-19T03:18:55;11.20;99.90
26278;DHT22;14000;52.056;8.510;2023-11-19T03:21:28;11.30;99.90
26278;DHT22;14000;52.056;8.510;2023-11-19T03:23:54;11.30;99.90
26278;DHT22;14000;52.056;8.510;2023-11-19T03:26:19;11.30;99.90
26278;DHT22;14000;52.056;8.510;2023-11-19T03:28:45;11.30;99.90
26278;DHT22;14000;52.056;8.510;2023-11-19T03:31:11;11.40;99.90
26278;DHT22;14000;52.056;8.510;2023-11-19T03:33:37;11.50;99.90
26278;DHT22;14000;52.056;8.510;2023-11-19T03:36:03;11.50;99.90
26278;DHT22;14000;52.056;8.510;2023-11-19T03:38:28;11.50;99.90
26278;DHT22;14000;52.056;8.510;2023-11-19T03:40:54;11.60;99.90
26278;DHT22;14000;52.056;8.510;2023-11-19T03:43:19;11.60;99.90
26278;DHT22;14000;52.056;8.510;2023-11-19T03:45:45;11.60;99.90
26278;DHT22;14000;52.056;8.510;2023-11-19T03:48:11;11.60;99.90
26278;DHT22;14000;52.056;8.510;2023-11-19T03:50:37;11.60;99.90
26278;DHT22;14000;52.056;8.510;2023-11-19T03:53:02;11.60;99.90
26278;DHT22;14000;52.056;8.510;2023-11-19T03:55:29;11.70;99.90
26278;DHT22;14000;52.056;8.510;2023-11-19T03:57:55;11.70;99.90
26278;DHT22;14000;52.056;8.510;2023-11-19T04:00:20;11.70;99.90
26278;DHT22;14000;52.056;8.510;2023-11-19T04:02:46;11.70;99.90
26278;DHT22;14000;52.056;8.510;2023-11-19T04:05:12;11.70;99.90
26278;DHT22;14000;52.056;8.510;2023-11-19T04:07:38;11.70;99.90
26278;DHT22;14000;52.056;8.510;2023-11-19T04:10:04;11.80;99.90
26278;DHT22;14000;52.056;8.510;2023-11-19T04:12:30;11.80;99.90
26278;DHT22;14000;52.056;8.510;2023-11-19T04:14:55;11.80;99.90
26278;DHT22;14000;52.056;8.510;2023-11-19T04:17:21;11.80;99.90
26278;DHT22;14000;52.056;8.510;2023-11-19T04:19:48;11.80;99.90
26278;DHT22;14000;52.056;8.510;2023-11-19T04:22:14;11.80;99.90
26278;DHT22;14000;52.056;8.510;2023-11-19T04:24:39;11.80;99.90
26278;DHT22;14000;52.056;8.510;2023-11-19T04:27:06;11.90;99.90
26278;DHT22;14000;52.056;8.510;2023-11-19T04:29:32;11.80;99.90
26278;DHT22;14000;52.056;8.510;2023-11-19T04:31:57;11.90;99.90
26278;DHT22;14000;52.056;8.510;2023-11-19T04:34:24;11.90;99.90
26278;DHT22;14000;52.056;8.510;2023-11-19T04:36:49;12.00;99.90
26278;DHT22;14000;52.056;8.510;2023-11-19T04:39:15;11.90;99.90
26278;DHT22;14000;52.056;8.510;2023-11-19T04:41:51;11.90;99.90
26278;DHT22;14000;52.056;8.510;2023-11-19T04:44:20;11.90;99.90
26278;DHT22;14000;52.056;8.510;2023-11-19T04:46:46;11.90;99.90
26278;DHT22;14000;52.056;8.510;2023-11-19T04:49:13;11.80;99.90
26278;DHT22;14000;52.056;8.510;2023-11-19T04:51:43;11.80;99.90
26278;DHT22;14000;52.056;8.510;2023-11-19T04:54:09;11.80;99.90
26278;DHT22;14000;52.056;8.510;2023-11-19T04:56:36;11.80;99.90
26278;DHT22;14000;52.056;8.510;2023-11-19T04:59:03;11.90;99.90
26278;DHT22;14000;52.056;8.510;2023-11-19T05:01:28;11.70;99.90
26278;DHT22;14000;52.056;8.510;2023-11-19T05:03:56;11.80;99.90
26278;DHT22;14000;52.056;8.510;2023-11-19T05:06:31;11.80;99.90
26278;DHT22;14000;52.056;8.510;2023-11-19T05:08:59;11.70;99.90
26278;DHT22;14000;52.056;8.510;2023-11-19T05:11:33;11.70;99.90
26278;DHT22;14000;52.056;8.510;2023-11-19T05:13:59;11.80;99.90
26278;DHT22;14000;52.056;8.510;2023-11-19T05:16:25;11.70;99.90
26278;DHT22;14000;52.056;8.510;2023-11-19T05:18:51;11.70;99.90
26278;DHT22;14000;52.056;8.510;2023-11-19T05:21:17;11.60;99.90
26278;DHT22;14000;52.056;8.510;2023-11-19T05:23:43;11.70;99.90
26278;DHT22;14000;52.056;8.510;2023-11-19T05:26:08;11.60;99.90
26278;DHT22;14000;52.056;8.510;2023-11-19T05:28:38;11.60;99.90
26278;DHT22;14000;52.056;8.510;2023-11-19T05:31:05;11.60;99.90
26278;DHT22;14000;52.056;8.510;2023-11-19T05:33:31;11.60;99.90
26278;DHT22;14000;52.056;8.510;2023-11-19T05:35:56;11.60;99.90
26278;DHT22;14000;52.056;8.510;2023-11-19T05:38:23;11.60;99.90
26278;DHT22;14000;52.056;8.510;2023-11-19T05:40:48;11.50;99.90
26278;DHT22;14000;52.056;8.510;2023-11-19T05:43:14;11.50;99.90
26278;DHT22;14000;52.056;8.510;2023-11-19T05:45:42;11.60;99.90
26278;DHT22;14000;52.056;8.510;2023-11-19T05:48:08;11.60;99.90
26278;DHT22;14000;52.056;8.510;2023-11-19T05:50:35;11.60;99.90
26278;DHT22;14000;52.056;8.510;2023-11-19T05:53:00;11.60;99.90
26278;DHT22;14000;52.056;8.510;2023-11-19T05:55:26;11.50;99.90
26278;DHT22;14000;52.056;8.510;2023-11-19T05:57:53;11.50;99.90
26278;DHT22;14000;52.056;8.510;2023-11-19T06:00:19;11.60;99.90
26278;DHT22;14000;52.056;8.510;2023-11-19T06:02:45;11.50;99.90
26278;DHT22;14000;52.056;8.510;2023-11-19T06:05:11;11.60;99.90
26278;DHT22;14000;52.056;8.510;2023-11-19T06:07:37;11.60;99.90
26278;DHT22;14000;52.056;8.510;2023-11-19T06:10:04;11.60;99.90
26278;DHT22;14000;52.056;8.510;2023-11-19T06:12:33;11.70;99.90
26278;DHT22;14000;52.056;8.510;2023-11-19T06:15:00;11.80;99.90
26278;DHT22;14000;52.056;8.510;2023-11-19T06:17:25;11.70;99.90
26278;DHT22;14000;52.056;8.510;2023-11-19T06:19:51;11.70;99.90
26278;DHT22;14000;52.056;8.510;2023-11-19T06:22:17;11.60;99.90
26278;DHT22;14000;52.056;8.510;2023-11-19T06:24:43;11.60;99.90
26278;DHT22;14000;52.056;8.510;2023-11-19T06:27:08;11.60;99.90
26278;DHT22;14000;52.056;8.510;2023-11-19T06:29:34;11.60;99.90
26278;DHT22;14000;52.056;8.510;2023-11-19T06:32:00;11.70;99.90
26278;DHT22;14000;52.056;8.510;2023-11-19T06:34:25;11.60;99.90
26278;DHT22;14000;52.056;8.510;2023-11-19T06:36:51;11.70;99.90
26278;DHT22;14000;52.056;8.510;2023-11-19T06:39:18;11.60;99.90
26278;DHT22;14000;52.056;8.510;2023-11-19T06:41:47;11.70;99.90
26278;DHT22;14000;52.056;8.510;2023-11-19T06:44:12;11.60;99.90
26278;DHT22;14000;52.056;8.510;2023-11-19T06:46:39;11.60;99.90
26278;DHT22;14000;52.056;8.510;2023-11-19T06:49:04;11.70;99.90
26278;DHT22;14000;52.056;8.510;2023-11-19T06:51:30;11.70;99.90
26278;DHT22;14000;52.056;8.510;2023-11-19T06:53:55;11.70;99.90
26278;DHT22;14000;52.056;8.510;2023-11-19T06:56:22;11.60;99.90
26278;DHT22;14000;52.056;8.510;2023-11-19T06:58:48;11.60;99.90
26278;DHT22;14000;52.056;8.510;2023-11-19T07:01:17;11.60;99.90
26278;DHT22;14000;52.056;8.510;2023-11-19T07:03:47;11.60;99.90
26278;DHT22;14000;52.056;8.510;2023-11-19T07:06:12;11.60;99.90
26278;DHT22;14000;52.056;8.510;2023-11-19T07:08:39;11.50;99.90
26278;DHT22;14000;52.056;8.510;2023-11-19T07:11:04;11.60;99.90
26278;DHT22;14000;52.056;8.510;2023-11-19T07:13:30;11.60;99.90
26278;DHT22;14000;52.056;8.510;2023-11-19T07:15:58;11.60;99.90
26278;DHT22;14000;52.056;8.510;2023-11-19T07:18:25;11.70;99.90
26278;DHT22;14000;52.056;8.510;2023-11-19T07:20:50;11.60;99.90
26278;DHT22;14000;52.056;8.510;2023-11-19T07:23:16;11.60;99.90
26278;DHT22;14000;52.056;8.510;2023-11-19T07:25:43;11.60;99.90
26278;DHT22;14000;52.056;8.510;2023-11-19T07:28:10;11.60;99.90
26278;DHT22;14000;52.056;8.510;2023-11-19T07:30:35;11.60;99.90
26278;DHT22;14000;52.056;8.510;2023-11-19T07:33:01;11.60;99.90
26278;DHT22;14000;52.056;8.510;2023-11-19T07:35:29;11.60;99.90
26278;DHT22;14000;52.056;8.510;2023-11-19T07:37:56;11.60;99.90
26278;DHT22;14000;52.056;8.510;2023-11-19T07:40:23;11.60;99.90
26278;DHT22;14000;52.056;8.510;2023-11-19T07:42:48;11.60;99.90
26278;DHT22;14000;52.056;8.510;2023-11-19T07:45:14;11.60;99.90
26278;DHT22;14000;52.056;8.510;2023-11-19T07:47:40;11.60;99.90
26278;DHT22;14000;52.056;8.510;2023-11-19T07:50:06;11.60;99.90
26278;DHT22;14000;52.056;8.510;2023-11-19T07:52:31;11.60;99.90
26278;DHT22;14000;52.056;8.510;2023-11-19T07:54:57;11.60;99.90
26278;DHT22;14000;52.056;8.510;2023-11-19T07:57:22;11.60;99.90
26278;DHT22;14000;52.056;8.510;2023-11-19T07:59:49;11.60;99.90
26278;DHT22;14000;52.056;8.510;2023-11-19T08:02:15;11.60;99.90
26278;DHT22;14000;52.056;8.510;2023-11-19T08:04:40;11.60;99.90
26278;DHT22;14000;52.056;8.510;2023-11-19T08:07:10;11.60;99.90
26278;DHT22;14000;52.056;8.510;2023-11-19T08:09:36;11.50;99.90
26278;DHT22;14000;52.056;8.510;2023-11-19T08:12:03;11.50;99.90
26278;DHT22;14000;52.056;8.510;2023-11-19T08:14:29;11.50;99.90
26278;DHT22;14000;52.056;8.510;2023-11-19T08:16:54;11.60;99.90
26278;DHT22;14000;52.056;8.510;2023-11-19T08:19:20;11.50;99.90
26278;DHT22;14000;52.056;8.510;2023-11-19T08:21:46;11.50;99.90
26278;DHT22;14000;52.056;8.510;2023-11-19T08:24:11;11.60;99.90
26278;DHT22;14000;52.056;8.510;2023-11-19T08:26:37;11.60;99.90
26278;DHT22;14000;52.056;8.510;2023-11-19T08:29:02;11.60;99.90
26278;DHT22;14000;52.056;8.510;2023-11-19T08:31:28;11.60;99.90
26278;DHT22;14000;52.056;8.510;2023-11-19T08:33:54;11.50;99.90
26278;DHT22;14000;52.056;8.510;2023-11-19T08:36:20;11.60;99.90
26278;DHT22;14000;52.056;8.510;2023-11-19T08:38:46;11.60;99.90
26278;DHT22;14000;52.056;8.510;2023-11-19T08:41:12;11.70;99.90
26278;DHT22;14000;52.056;8.510;2023-11-19T08:43:37;11.70;99.90
26278;DHT22;14000;52.056;8.510;2023-11-19T08:46:04;11.70;99.90
26278;DHT22;14000;52.056;8.510;2023-11-19T08:48:29;11.80;99.90
26278;DHT22;14000;52.056;8.510;2023-11-19T08:50:55;11.70;99.90
26278;DHT22;14000;52.056;8.510;2023-11-19T08:53:20;11.80;99.90
26278;DHT22;14000;52.056;8.510;2023-11-19T08:55:46;11.70;99.90
26278;DHT22;14000;52.056;8.510;2023-11-19T08:58:12;11.70;99.90
26278;DHT22;14000;52.056;8.510;2023-11-19T09:00:37;11.80;99.90
26278;DHT22;14000;52.056;8.510;2023-11-19T09:03:03;11.70;99.90
26278;DHT22;14000;52.056;8.510;2023-11-19T09:05:29;11.80;99.90
26278;DHT22;14000;52.056;8.510;2023-11-19T09:07:54;11.70;99.90
26278;DHT22;14000;52.056;8.510;2023-11-19T09:10:20;11.70;99.90
26278;DHT22;14000;52.056;8.510;2023-11-19T09:12:45;11.80;99.90
26278;DHT22;14000;52.056;8.510;2023-11-19T09:15:11;11.80;99.90
26278;DHT22;14000;52.056;8.510;2023-11-19T09:17:36;11.80;99.90
26278;DHT22;14000;52.056;8.510;2023-11-19T09:20:02;11.80;99.90
26278;DHT22;14000;52.056;8.510;2023-11-19T09:22:28;11.80;99.90
26278;DHT22;14000;52.056;8.510;2023-11-19T09:24:53;11.80;99.90
26278;DHT22;14000;52.056;8.510;2023-11-19T09:27:19;11.80;99.90
26278;DHT22;14000;52.056;8.510;2023-11-19T09:29:46;11.80;99.90
26278;DHT22;14000;52.056;8.510;2023-11-19T09:32:12;11.70;99.90
26278;DHT22;14000;52.056;8.510;2023-11-19T09:34:38;11.70;99.90
26278;DHT22;14000;52.056;8.510;2023-11-19T09:37:03;11.70;99.90
26278;DHT22;14000;52.056;8.510;2023-11-19T09:39:29;11.80;99.90
26278;DHT22;14000;52.056;8.510;2023-11-19T09:41:55;11.80;99.90
26278;DHT22;14000;52.056;8.510;2023-11-19T09:44:20;11.80;99.90
26278;DHT22;14000;52.056;8.510;2023-11-19T09:46:46;11.80;99.90
26278;DHT22;14000;52.056;8.510;2023-11-19T09:49:14;11.90;99.90
26278;DHT22;14000;52.056;8.510;2023-11-19T09:51:44;11.90;99.90
26278;DHT22;14000;52.056;8.510;2023-11-19T09:54:10;11.80;99.90
26278;DHT22;14000;52.056;8.510;2023-11-19T09:56:38;11.80;99.90
26278;DHT22;14000;52.056;8.510;2023-11-19T09:59:05;11.70;99.90
26278;DHT22;14000;52.056;8.510;2023-11-19T10:01:30;11.70;99.90
26278;DHT22;14000;52.056;8.510;2023-11-19T10:03:57;11.60;99.90
26278;DHT22;14000;52.056;8.510;2023-11-19T10:06:24;11.60;99.90
26278;DHT22;14000;52.056;8.510;2023-11-19T10:08:51;11.60;99.90
26278;DHT22;14000;52.056;8.510;2023-11-19T10:11:17;11.60;99.90
26278;DHT22;14000;52.056;8.510;2023-11-19T10:13:42;11.60;99.90
26278;DHT22;14000;52.056;8.510;2023-11-19T10:16:09;11.70;99.90
26278;DHT22;14000;52.056;8.510;2023-11-19T10:18:37;11.70;99.90
26278;DHT22;14000;52.056;8.510;2023-11-19T10:21:06;11.80;99.90
26278;DHT22;14000;52.056;8.510;2023-11-19T10:23:54;11.80;99.90
26278;DHT22;14000;52.056;8.510;2023-11-19T10:26:21;11.90;99.90
26278;DHT22;14000;52.056;8.510;2023-11-19T10:28:47;12.00;99.90
26278;DHT22;14000;52.056;8.510;2023-11-19T10:31:17;12.10;99.90
26278;DHT22;14000;52.056;8.510;2023-11-19T10:33:43;12.10;99.90
26278;DHT22;14000;52.056;8.510;2023-11-19T10:36:13;12.10;99.90
26278;DHT22;14000;52.056;8.510;2023-11-19T10:38:40;12.20;99.90
26278;DHT22;14000;52.056;8.510;2023-11-19T10:41:06;12.20;99.90
26278;DHT22;14000;52.056;8.510;2023-11-19T10:43:42;12.20;99.90
26278;DHT22;14000;52.056;8.510;2023-11-19T10:46:13;12.20;99.90
26278;DHT22;14000;52.056;8.510;2023-11-19T10:48:40;12.30;99.90
26278;DHT22;14000;52.056;8.510;2023-11-19T10:51:07;12.30;99.90
26278;DHT22;14000;52.056;8.510;2023-11-19T10:53:36;12.30;99.90
26278;DHT22;14000;52.056;8.510;2023-11-19T10:56:02;12.30;99.90
26278;DHT22;14000;52.056;8.510;2023-11-19T10:58:32;12.30;99.90
26278;DHT22;14000;52.056;8.510;2023-11-19T11:01:02;12.30;99.90
26278;DHT22;14000;52.056;8.510;2023-11-19T11:03:36;12.30;99.90
26278;DHT22;14000;52.056;8.510;2023-11-19T11:06:05;12.30;99.90
26278;DHT22;14000;52.056;8.510;2023-11-19T11:08:31;12.30;99.90
26278;DHT22;14000;52.056;8.510;2023-11-19T11:10:57;12.30;99.90
26278;DHT22;14000;52.056;8.510;2023-11-19T11:13:26;12.30;99.90
26278;DHT22;14000;52.056;8.510;2023-11-19T11:15:55;12.30;99.90
26278;DHT22;14000;52.056;8.510;2023-11-19T11:18:23;12.30;99.90
26278;DHT22;14000;52.056;8.510;2023-11-19T11:20:55;12.30;99.90
26278;DHT22;14000;52.056;8.510;2023-11-19T11:37:35;11.90;99.90
26278;DHT22;14000;52.056;8.510;2023-11-19T11:40:02;11.80;99.90
26278;DHT22;14000;52.056;8.510;2023-11-19T11:42:36;11.90;99.90
26278;DHT22;14000;52.056;8.510;2023-11-19T11:45:04;11.90;99.90
26278;DHT22;14000;52.056;8.510;2023-11-19T11:50:08;12.10;99.90
26278;DHT22;14000;52.056;8.510;2023-11-19T11:55:51;12.20;99.90
26278;DHT22;14000;52.056;8.510;2023-11-19T11:58:18;12.20;99.90
26278;DHT22;14000;52.056;8.510;2023-11-19T12:00:43;12.10;99.90
26278;DHT22;14000;52.056;8.510;2023-11-19T12:03:11;12.00;99.90
26278;DHT22;14000;52.056;8.510;2023-11-19T12:05:44;11.80;99.90
26278;DHT22;14000;52.056;8.510;2023-11-19T12:08:11;11.60;99.90
26278;DHT22;14000;52.056;8.510;2023-11-19T12:10:48;11.40;99.90
26278;DHT22;14000;52.056;8.510;2023-11-19T12:13:14;11.20;99.90
26278;DHT22;14000;52.056;8.510;2023-11-19T12:18:30;11.20;99.90
26278;DHT22;14000;52.056;8.510;2023-11-19T12:20:59;11.10;99.90
26278;DHT22;14000;52.056;8.510;2023-11-19T12:23:31;11.10;99.90
26278;DHT22;14000;52.056;8.510;2023-11-19T12:25:58;11.00;99.90
26278;DHT22;14000;52.056;8.510;2023-11-19T12:28:24;11.00;99.90
26278;DHT22;14000;52.056;8.510;2023-11-19T12:30:52;10.90;99.90
26278;DHT22;14000;52.056;8.510;2023-11-19T12:33:19;10.90;99.90
26278;DHT22;14000;52.056;8.510;2023-11-19T12:35:48;10.90;99.90
26278;DHT22;14000;52.056;8.510;2023-11-19T12:40:46;10.90;99.90
26278;DHT22;14000;52.056;8.510;2023-11-19T12:43:21;11.00;99.90
26278;DHT22;14000;52.056;8.510;2023-11-19T12:45:47;11.00;99.90
26278;DHT22;14000;52.056;8.510;2023-11-19T12:48:13;11.00;99.90
26278;DHT22;14000;52.056;8.510;2023-11-19T12:50:55;11.10;99.90
26278;DHT22;14000;52.056;8.510;2023-11-19T12:53:22;11.10;99.90
26278;DHT22;14000;52.056;8.510;2023-11-19T12:55:49;11.20;99.90
26278;DHT22;14000;52.056;8.510;2023-11-19T12:58:31;11.20;99.90
26278;DHT22;14000;52.056;8.510;2023-11-19T13:01:04;11.30;99.90
26278;DHT22;14000;52.056;8.510;2023-11-19T13:03:34;11.30;99.90
26278;DHT22;14000;52.056;8.510;2023-11-19T13:06:08;11.30;99.90
26278;DHT22;14000;52.056;8.510;2023-11-19T13:08:41;11.30;99.90
26278;DHT22;14000;52.056;8.510;2023-11-19T13:11:09;11.30;99.90
26278;DHT22;14000;52.056;8.510;2023-11-19T13:13:57;11.40;99.90
26278;DHT22;14000;52.056;8.510;2023-11-19T13:16:24;11.40;99.90
26278;DHT22;14000;52.056;8.510;2023-11-19T13:18:50;11.40;99.90
26278;DHT22;14000;52.056;8.510;2023-11-19T13:21:16;11.40;99.90
26278;DHT22;14000;52.056;8.510;2023-11-19T13:23:42;11.40;99.90
26278;DHT22;14000;52.056;8.510;2023-11-19T13:26:09;11.40;99.90
26278;DHT22;14000;52.056;8.510;2023-11-19T13:28:34;11.50;99.90
26278;DHT22;14000;52.056;8.510;2023-11-19T13:31:00;11.50;99.90
26278;DHT22;14000;52.056;8.510;2023-11-19T13:33:25;11.50;99.90
26278;DHT22;14000;52.056;8.510;2023-11-19T13:35:51;11.60;99.90
26278;DHT22;14000;52.056;8.510;2023-11-19T13:38:17;11.60;99.90
26278;DHT22;14000;52.056;8.510;2023-11-19T13:40:43;11.70;99.90
26278;DHT22;14000;52.056;8.510;2023-11-19T13:43:08;11.70;99.90
26278;DHT22;14000;52.056;8.510;2023-11-19T13:45:34;11.80;99.90
26278;DHT22;14000;52.056;8.510;2023-11-19T13:47:59;12.00;99.90
26278;DHT22;14000;52.056;8.510;2023-11-19T13:50:25;12.10;99.90
26278;DHT22;14000;52.056;8.510;2023-11-19T13:52:51;12.30;99.90
26278;DHT22;14000;52.056;8.510;2023-11-19T13:55:17;12.30;99.90
26278;DHT22;14000;52.056;8.510;2023-11-19T13:57:43;12.30;99.90
26278;DHT22;14000;52.056;8.510;2023-11-19T14:00:10;12.30;99.90
26278;DHT22;14000;52.056;8.510;2023-11-19T14:02:44;12.20;99.90
26278;DHT22;14000;52.056;8.510;2023-11-19T14:05:11;12.10;99.90
26278;DHT22;14000;52.056;8.510;2023-11-19T14:07:37;12.00;99.90
26278;DHT22;14000;52.056;8.510;2023-11-19T14:10:03;11.90;99.90
26278;DHT22;14000;52.056;8.510;2023-11-19T14:12:31;11.80;99.90
26278;DHT22;14000;52.056;8.510;2023-11-19T14:14:57;11.80;99.90
26278;DHT22;14000;52.056;8.510;2023-11-19T14:17:23;11.80;99.90
26278;DHT22;14000;52.056;8.510;2023-11-19T14:19:50;11.70;99.90
26278;DHT22;14000;52.056;8.510;2023-11-19T14:22:16;11.60;99.90
26278;DHT22;14000;52.056;8.510;2023-11-19T14:24:41;11.50;99.90
26278;DHT22;14000;52.056;8.510;2023-11-19T14:27:08;11.50;99.90
26278;DHT22;14000;52.056;8.510;2023-11-19T14:29:34;11.50;99.90
26278;DHT22;14000;52.056;8.510;2023-11-19T14:32:01;11.40;99.90
26278;DHT22;14000;52.056;8.510;2023-11-19T14:34:27;11.40;99.90
26278;DHT22;14000;52.056;8.510;2023-11-19T14:36:53;11.40;99.90
26278;DHT22;14000;52.056;8.510;2023-11-19T14:39:20;11.40;99.90
26278;DHT22;14000;52.056;8.510;2023-11-19T14:41:45;11.40;99.90
26278;DHT22;14000;52.056;8.510;2023-11-19T14:44:11;11.50;99.90
26278;DHT22;14000;52.056;8.510;2023-11-19T14:46:37;11.50;99.90
26278;DHT22;14000;52.056;8.510;2023-11-19T14:49:02;11.50;99.90
26278;DHT22;14000;52.056;8.510;2023-11-19T14:51:30;11.50;99.90
26278;DHT22;14000;52.056;8.510;2023-11-19T14:53:55;11.60;99.90
26278;DHT22;14000;52.056;8.510;2023-11-19T14:56:21;11.50;99.90
26278;DHT22;14000;52.056;8.510;2023-11-19T14:58:47;11.50;99.90
26278;DHT22;14000;52.056;8.510;2023-11-19T15:01:13;11.40;99.90
26278;DHT22;14000;52.056;8.510;2023-11-19T15:03:38;11.30;99.90
26278;DHT22;14000;52.056;8.510;2023-11-19T15:06:04;11.30;99.90
26278;DHT22;14000;52.056;8.510;2023-11-19T15:08:32;11.20;99.90
26278;DHT22;14000;52.056;8.510;2023-11-19T15:10:57;11.20;99.90
26278;DHT22;14000;52.056;8.510;2023-11-19T15:13:24;11.20;99.90
26278;DHT22;14000;52.056;8.510;2023-11-19T15:15:49;11.20;99.90
26278;DHT22;14000;52.056;8.510;2023-11-19T15:18:15;11.20;99.90
26278;DHT22;14000;52.056;8.510;2023-11-19T15:20:42;11.20;99.90
26278;DHT22;14000;52.056;8.510;2023-11-19T15:23:15;11.30;99.90
26278;DHT22;14000;52.056;8.510;2023-11-19T15:25:41;11.30;99.90
26278;DHT22;14000;52.056;8.510;2023-11-19T15:28:07;11.30;99.90
26278;DHT22;14000;52.056;8.510;2023-11-19T15:30:33;11.30;99.90
26278;DHT22;14000;52.056;8.510;2023-11-19T15:32:58;11.30;99.90
26278;DHT22;14000;52.056;8.510;2023-11-19T15:35:24;11.30;99.90
26278;DHT22;14000;52.056;8.510;2023-11-19T15:37:50;11.30;99.90
26278;DHT22;14000;52.056;8.510;2023-11-19T15:40:15;11.30;99.90
26278;DHT22;14000;52.056;8.510;2023-11-19T15:42:41;11.40;99.90
26278;DHT22;14000;52.056;8.510;2023-11-19T15:45:09;11.40;99.90
26278;DHT22;14000;52.056;8.510;2023-11-19T15:47:35;11.40;99.90
26278;DHT22;14000;52.056;8.510;2023-11-19T15:50:01;11.40;99.90
26278;DHT22;14000;52.056;8.510;2023-11-19T15:52:28;11.40;99.90
26278;DHT22;14000;52.056;8.510;2023-11-19T15:54:55;11.40;99.90